Crystalaire, California
Current Conditions -  °F | °C
As of 10:55 PM on Tuesday 25 Nov 2014 (Local Time) from KGXA Reporting Station
Clear Clear  
Wind Chill: 40°   Ceiling: Unl
Heat Index: 43°   Visibility: 10mi
Dew Point:   Wind: 5mph
Humidity: 18%   Direction: 170°S
Pressure: 30.39"   Gusts: NA
Location:  34.5233°N, 117.774°W
Report Text: KGXA 260655Z AUTO 17004KT 10SM CLR 06/M17 A3039 RMK AO2 SLP300 T00601171 PWINO TSNO $
Loading
Personal Weather Stations






























Interactive Weather Map New forecast layout! Learn more

10-Day Weather Forecast

Advertisements
Track Severe Weather on mobile